CheckWX is a tool to help pilots better visualize weather data.  It is not intended as a substitute for an official pre-flight weather briefing.

20:18:38 UTC

KSGR METAR
Sugar Land Regional Airport
Houston, Texas, USA
Current

26 mins ago

KSGR 201953Z 14017G24KT 10SM BKN038 OVC048 26/18 A2996 RMK AO2 SLP148 T02610183
Observed
Nov-20 @ 19:53 UTC
Wind
  • 140° at 17 KTS
  • Gusting to 24 KTS
Visibility
10 SM
Flight Rules
VFR
Cloud Levels
  • Broken at 3,800' AGL
  • Overcast at 4,800' AGL
Temperature
26°C / 79°F
Dewpoint
18°C / 64°F
Humidity
61%
Altimeter
29.96" Hg
Pressure
1014.52 hPa
Previous

1 hour ago

KSGR 201853Z 14017KT 10SM BKN030 OVC038 26/19 A2998 RMK AO2 SLP155 T02560189
Observed
Nov-20 @ 18:53 UTC
Wind
  • 140° at 17 KTS
Visibility
10 SM
Flight Rules
MVFR
Cloud Levels
  • Broken at 3,000' AGL
  • Overcast at 3,800' AGL
Temperature
26°C / 79°F
Dewpoint
19°C / 66°F
Humidity
65%
Altimeter
29.98" Hg
Pressure
1015.22 hPa
Previous

2 hours ago

KSGR 201753Z 15013KT 10SM FEW026 BKN060 26/20 A3002 RMK AO2 RAB12E25 SLP165 P0001 60001 T02560200 10261 20172 58005
Observed
Nov-20 @ 17:53 UTC
Wind
  • 150° at 13 KTS
Visibility
10 SM
Flight Rules
VFR
Cloud Levels
  • Few at 2,600' AGL
  • Broken at 6,000' AGL
Temperature
26°C / 79°F
Dewpoint
20°C / 68°F
Humidity
70%
Altimeter
30.02" Hg
Pressure
1016.62 hPa
Current Rain
0.01"